Miranda, California
Current Conditions -  °F | °C
As of 8:15 AM on Monday 24 Nov 2014 (Local Time) from KFOT Reporting Station
Overcast Overcast  
Wind Chill: 40°   Ceiling: 4800
Heat Index: 45°   Visibility: 10mi
Dew Point: 43°   Wind: 9mph
Humidity: 93%   Direction: 140°SE
Pressure: 30.39"   Gusts: NA
Location:  40.23°N, 123.83°W
Report Text: KFOT 241615Z AUTO 14008KT 10SM OVC048 07/06 A3039 RMK AO1
Loading
Personal Weather Stations






























Interactive Weather Map New forecast layout! Learn more

10-Day Weather Forecast

Advertisements
Track Severe Weather on mobile